Terminal Aerodrome Forecast
Issued by NWS Springfield, MO

Home | Current Version | Previous Version | Text Only | Print | Product List | Glossary On
Versions: 1 2 3 4 5 6 7 8 9 10 11 12 13 14
858
FTUS43 KSGF 312320
TAFSGF
TAF
KSGF 312320Z 0100/0124 18005KT P6SM BKN050 BKN120
     FM010100 20004KT P6SM -SHRA BKN050 BKN120
      TEMPO 0101/0102 4SM TS OVC040CB
     FM010500 VRB03KT P6SM -SHRA VCTS BKN050CB BKN150
     FM011000 VRB03KT P6SM VCTS BKN040CB BKN090
     FM011400 28004KT P6SM BKN020 BKN090=

USA.gov is the U.S. government's official web portal to all federal, state and local government web resources and services.